Time;durP1;ratioP1;P1;durP2;ratioP2;P2;SDS_P1;SDS_P2;PMS_P1;PMS_P2;Temp;Humidity;BMP_temperature;BMP_pressure;BME280_temperature;BME280_humidity;BME280_pressure;Samples;Min_cycle;Max_cycle;Signal;HPM_P1;HPM_P2
2021/06/11 00:00:46;;;;;;;14.10;8.00;;;;;;;;;;5063289;28;20089;-88
2021/06/11 00:03:13;;;;;;;15.55;9.00;;;;;;;;;;5101880;28;20052;-89
2021/06/11 00:05:40;;;;;;;12.35;8.98;;;;;;;;;;5090672;28;20081;-89
2021/06/11 00:08:08;;;;;;;13.55;9.27;;;;;;;;;;5092426;28;20055;-89
2021/06/11 00:10:36;;;;;;;11.80;9.73;;;;;;;;;;5074869;28;20364;-89
2021/06/11 00:13:03;;;;;;;13.60;9.50;;;;;;;;;;5075352;28;20061;-89
2021/06/11 00:15:31;;;;;;;13.95;9.20;;;;;;;;;;5003551;28;20054;-88
2021/06/11 00:17:58;;;;;;;19.30;9.43;;;;;;;;;;5069381;28;20050;-88
2021/06/11 00:20:26;;;;;;;17.00;9.05;;;;;;;;;;5012877;28;20069;-88
2021/06/11 00:22:54;;;;;;;11.43;8.70;;;;;;;;;;5088828;28;20076;-90
2021/06/11 00:25:23;;;;;;;12.40;9.48;;;;;;;;;;5088943;28;20173;-86
2021/06/11 00:27:50;;;;;;;17.70;9.63;;;;;;;;;;5094261;28;20078;-88
2021/06/11 00:30:19;;;;;;;13.40;10.38;;;;;;;;;;5091156;28;20052;-88
2021/06/11 00:32:47;;;;;;;13.52;9.32;;;;;;;;;;5078930;28;20075;-89
2021/06/11 00:35:14;;;;;;;15.63;10.52;;;;;;;;;;5053036;28;20082;-89
2021/06/11 00:37:41;;;;;;;14.48;10.70;;;;;;;;;;5057744;28;20050;-88
2021/06/11 00:40:09;;;;;;;18.10;12.23;;;;;;;;;;5057813;28;20074;-87
2021/06/11 00:42:37;;;;;;;15.32;11.32;;;;;;;;;;5062961;28;20168;-89
2021/06/11 00:45:05;;;;;;;15.57;11.77;;;;;;;;;;5077748;28;20052;-89
2021/06/11 00:47:33;;;;;;;21.05;11.23;;;;;;;;;;5076646;28;20120;-89
2021/06/11 00:50:00;;;;;;;20.67;11.48;;;;;;;;;;5075561;28;20153;-88
2021/06/11 00:52:27;;;;;;;13.93;10.68;;;;;;;;;;5076521;28;20138;-89
2021/06/11 00:54:54;;;;;;;18.00;11.93;;;;;;;;;;5077318;28;20492;-88
2021/06/11 00:57:21;;;;;;;14.32;10.52;;;;;;;;;;5076443;28;20130;-88
2021/06/11 00:59:49;;;;;;;17.38;11.57;;;;;;;;;;5075927;28;20139;-88
2021/06/11 01:02:16;;;;;;;14.52;10.80;;;;;;;;;;5076530;28;20131;-88
2021/06/11 01:04:43;;;;;;;19.50;11.63;;;;;;;;;;5076572;28;20729;-88
2021/06/11 01:07:11;;;;;;;16.13;10.80;;;;;;;;;;5075989;28;20071;-88
2021/06/11 01:09:39;;;;;;;15.10;10.98;;;;;;;;;;5075373;28;20101;-88
2021/06/11 01:12:08;;;;;;;17.02;10.68;;;;;;;;;;5093362;28;20135;-88
2021/06/11 01:14:35;;;;;;;16.20;11.00;;;;;;;;;;5074987;28;20484;-88
2021/06/11 01:17:03;;;;;;;16.55;11.43;;;;;;;;;;5074559;28;20724;-88
2021/06/11 01:19:32;;;;;;;17.08;11.02;;;;;;;;;;5074616;28;20468;-88
2021/06/11 01:22:28;;;;;;;16.73;11.30;;;;;;;;;;5092861;28;20093;-87
2021/06/11 01:24:56;;;;;;;;;;;;;;;;;;5020274;28;20120;-88
2021/06/11 01:27:23;;;;;;;14.95;10.30;;;;;;;;;;5074223;28;19981;-89
2021/06/11 01:29:53;;;;;;;19.40;10.68;;;;;;;;;;5057290;28;20137;-88
2021/06/11 01:32:20;;;;;;;19.77;11.38;;;;;;;;;;5056126;28;20050;-88
2021/06/11 01:34:50;;;;;;;15.18;11.82;;;;;;;;;;5057339;28;20104;-88
2021/06/11 01:37:19;;;;;;;15.32;11.27;;;;;;;;;;5056622;28;20108;-88
2021/06/11 01:39:48;;;;;;;16.90;11.27;;;;;;;;;;5074822;28;20052;-88
2021/06/11 01:42:16;;;;;;;24.25;10.55;;;;;;;;;;5072521;28;20162;-88
2021/06/11 01:44:44;;;;;;;16.35;11.88;;;;;;;;;;5068560;28;20081;-88
2021/06/11 01:47:13;;;;;;;15.38;11.38;;;;;;;;;;5068257;28;20079;-88
2021/06/11 01:49:43;;;;;;;13.63;10.63;;;;;;;;;;5069443;28;20093;-88
2021/06/11 01:52:12;;;;;;;16.02;10.27;;;;;;;;;;5080884;28;20085;-88
2021/06/11 01:54:40;;;;;;;17.75;10.55;;;;;;;;;;5055722;28;20559;-88
2021/06/11 01:57:08;;;;;;;16.73;10.63;;;;;;;;;;5072581;28;20117;-88
2021/06/11 01:59:35;;;;;;;14.57;10.50;;;;;;;;;;5090260;28;20044;-88
2021/06/11 02:02:03;;;;;;;15.48;9.60;;;;;;;;;;5073312;28;20075;-88
2021/06/11 02:04:31;;;;;;;12.23;8.18;;;;;;;;;;5073354;28;20464;-88
2021/06/11 02:06:59;;;;;;;10.80;8.10;;;;;;;;;;5074028;28;20062;-88
2021/06/11 02:09:27;;;;;;;10.73;8.30;;;;;;;;;;5066462;28;20048;-88
2021/06/11 02:11:55;;;;;;;12.90;7.72;;;;;;;;;;5061962;28;20099;-88
2021/06/11 02:14:22;;;;;;;11.73;8.05;;;;;;;;;;5073545;28;20127;-88
2021/06/11 02:16:50;;;;;;;8.77;7.38;;;;;;;;;;5074283;28;20055;-88
2021/06/11 02:19:20;;;;;;;10.52;7.78;;;;;;;;;;5074091;28;20089;-89
2021/06/11 02:21:48;;;;;;;9.43;7.13;;;;;;;;;;5069391;28;20058;-88
2021/06/11 02:24:15;;;;;;;12.73;8.77;;;;;;;;;;5079288;28;20052;-88
2021/06/11 02:26:43;;;;;;;13.90;8.57;;;;;;;;;;5076862;28;20158;-88
2021/06/11 02:29:11;;;;;;;11.25;8.30;;;;;;;;;;5063633;28;20070;-89
2021/06/11 02:31:39;;;;;;;13.25;8.23;;;;;;;;;;5077319;28;20083;-88
2021/06/11 02:34:07;;;;;;;12.52;8.27;;;;;;;;;;5077327;28;20136;-88
2021/06/11 02:36:35;;;;;;;9.43;7.80;;;;;;;;;;5077209;28;20048;-88
2021/06/11 02:39:03;;;;;;;12.23;8.05;;;;;;;;;;5077536;28;20087;-88
2021/06/11 02:41:33;;;;;;;10.55;8.10;;;;;;;;;;5077417;28;20491;-88
2021/06/11 02:44:00;;;;;;;9.75;8.10;;;;;;;;;;5062223;28;20055;-88
2021/06/11 02:46:34;;;;;;;11.05;8.32;;;;;;;;;;5057407;28;20072;-88
2021/06/11 02:49:23;;;;;;;10.30;8.00;;;;;;;;;;5087231;28;20467;-88
2021/06/11 02:51:52;;;;;;;9.65;7.97;;;;;;;;;;5059257;28;20774;-88
2021/06/11 02:54:22;;;;;;;10.23;9.02;;;;;;;;;;5084518;28;20109;-88
2021/06/11 02:57:01;;;;;;;14.05;8.35;;;;;;;;;;5094725;28;20437;-89
2021/06/11 02:59:32;;;;;;;12.13;7.78;;;;;;;;;;5094665;28;20052;-88
2021/06/11 03:02:03;;;;;;;11.68;7.85;;;;;;;;;;5076659;28;20670;-89
2021/06/11 03:04:30;;;;;;;12.30;8.65;;;;;;;;;;5077250;28;20052;-89
2021/06/11 03:06:58;;;;;;;11.77;8.38;;;;;;;;;;5095200;28;20080;-88
2021/06/11 03:09:27;;;;;;;11.85;9.20;;;;;;;;;;5093177;28;20443;-89
2021/06/11 03:11:56;;;;;;;16.77;9.27;;;;;;;;;;5074324;28;20052;-89
2021/06/11 03:14:26;;;;;;;11.45;9.00;;;;;;;;;;5058179;28;20148;-88
2021/06/11 03:16:56;;;;;;;21.00;9.80;;;;;;;;;;5057557;28;20081;-88
2021/06/11 03:19:25;;;;;;;12.63;9.45;;;;;;;;;;5057692;28;20054;-87
2021/06/11 03:21:55;;;;;;;15.50;10.95;;;;;;;;;;5074840;28;20094;-88
2021/06/11 03:24:39;;;;;;;21.30;11.15;;;;;;;;;;5075374;28;20173;-88
2021/06/11 03:27:10;;;;;;;13.32;9.95;;;;;;;;;;5075572;28;20138;-88
2021/06/11 03:29:41;;;;;;;12.82;9.73;;;;;;;;;;5076067;28;20285;-88
2021/06/11 03:32:11;;;;;;;15.65;9.52;;;;;;;;;;5076127;28;20088;-88
2021/06/11 03:34:43;;;;;;;15.13;9.27;;;;;;;;;;5075763;28;20048;-88
2021/06/11 03:37:15;;;;;;;12.43;9.25;;;;;;;;;;5075332;28;20048;-88
2021/06/11 03:40:14;;;;;;;13.18;8.63;;;;;;;;;;5075610;28;20120;-88
2021/06/11 03:42:45;;;;;;;15.82;10.40;;;;;;;;;;5076039;28;20075;-88
2021/06/11 03:45:14;;;;;;;14.00;9.02;;;;;;;;;;5076129;28;20048;-87
2021/06/11 03:47:42;;;;;;;13.05;9.05;;;;;;;;;;5094392;28;20083;-88
2021/06/11 03:50:10;;;;;;;15.85;9.73;;;;;;;;;;5076121;28;20699;-88
2021/06/11 03:52:39;;;;;;;15.27;10.63;;;;;;;;;;5042179;28;20141;-88
2021/06/11 03:55:14;;;;;;;13.40;9.27;;;;;;;;;;5062223;28;20080;-88
2021/06/11 03:57:42;;;;;;;13.27;10.50;;;;;;;;;;5092842;28;20071;-88
2021/06/11 04:00:10;;;;;;;13.82;10.57;;;;;;;;;;5074561;28;20083;-88
2021/06/11 04:02:37;;;;;;;16.42;10.18;;;;;;;;;;5074559;28;20087;-89
2021/06/11 04:05:05;;;;;;;16.85;10.75;;;;;;;;;;5093018;28;20631;-88
2021/06/11 04:07:40;;;;;;;20.05;10.27;;;;;;;;;;5075226;28;20135;-88
2021/06/11 04:10:07;;;;;;;;;;;;;;;;;;5091249;28;20044;-87
2021/06/11 04:12:41;;;;;;;16.15;10.45;;;;;;;;;;5066115;28;19951;-88
2021/06/11 04:15:09;;;;;;;17.48;11.65;;;;;;;;;;5091248;28;20084;-87
2021/06/11 04:17:40;;;;;;;21.80;12.13;;;;;;;;;;5091727;28;20121;-88
2021/06/11 04:20:12;;;;;;;18.33;12.60;;;;;;;;;;5073935;28;20163;-88
2021/06/11 04:22:43;;;;;;;24.17;12.83;;;;;;;;;;5067012;28;20426;-87
2021/06/11 04:25:12;;;;;;;18.98;11.82;;;;;;;;;;5056296;28;20790;-87
2021/06/11 04:27:43;;;;;;;22.13;11.85;;;;;;;;;;5057067;28;20141;-88
2021/06/11 04:30:11;;;;;;;17.50;11.20;;;;;;;;;;5073975;28;20086;-87
2021/06/11 04:32:38;;;;;;;13.93;10.50;;;;;;;;;;5057329;28;20061;-88
2021/06/11 04:35:06;;;;;;;35.35;11.95;;;;;;;;;;5075034;28;20090;-88
2021/06/11 04:37:35;;;;;;;29.98;13.10;;;;;;;;;;5091963;28;20048;-88
2021/06/11 04:40:07;;;;;;;26.98;12.13;;;;;;;;;;5075059;28;20767;-88
2021/06/11 04:42:34;;;;;;;25.98;12.10;;;;;;;;;;5057573;28;20046;-88
2021/06/11 04:45:02;;;;;;;31.30;14.43;;;;;;;;;;4989630;28;20133;-88
2021/06/11 04:47:29;;;;;;;30.05;13.93;;;;;;;;;;5056588;28;20137;-88
2021/06/11 04:49:57;;;;;;;25.80;13.43;;;;;;;;;;5074160;28;20492;-87
2021/06/11 04:52:24;;;;;;;23.58;12.55;;;;;;;;;;5067534;28;20078;-88
2021/06/11 04:54:51;;;;;;;26.05;12.75;;;;;;;;;;5057307;28;20078;-87
2021/06/11 04:57:19;;;;;;;17.33;12.18;;;;;;;;;;5056943;28;20426;-88
2021/06/11 04:59:46;;;;;;;17.15;12.00;;;;;;;;;;5056672;28;20125;-87
2021/06/11 05:02:13;;;;;;;20.13;12.05;;;;;;;;;;5056631;28;20550;-88
2021/06/11 05:04:40;;;;;;;24.75;12.85;;;;;;;;;;4990219;28;20078;-88
2021/06/11 05:07:07;;;;;;;19.83;12.85;;;;;;;;;;5074286;28;20076;-88
2021/06/11 05:09:36;;;;;;;22.65;13.20;;;;;;;;;;5074490;28;20516;-88
2021/06/11 05:12:03;;;;;;;25.50;13.27;;;;;;;;;;5074474;28;20044;-88
2021/06/11 05:14:30;;;;;;;31.88;13.75;;;;;;;;;;5055018;28;20800;-88
2021/06/11 05:16:57;;;;;;;24.45;14.43;;;;;;;;;;5054171;28;20892;-88
2021/06/11 05:19:25;;;;;;;24.05;13.48;;;;;;;;;;5054577;28;20551;-88
2021/06/11 05:21:54;;;;;;;29.38;15.23;;;;;;;;;;5028395;28;20046;-88
2021/06/11 05:24:21;;;;;;;27.92;14.32;;;;;;;;;;5058711;28;20046;-89
2021/06/11 05:26:48;;;;;;;25.75;14.52;;;;;;;;;;5068253;28;20075;-88
2021/06/11 05:29:16;;;;;;;33.00;15.75;;;;;;;;;;5065199;28;20045;-89
2021/06/11 05:31:43;;;;;;;32.42;14.82;;;;;;;;;;5054455;28;20085;-88
2021/06/11 05:34:11;;;;;;;25.75;14.43;;;;;;;;;;5053855;28;20056;-89
2021/06/11 05:36:38;;;;;;;25.70;14.55;;;;;;;;;;5072419;28;20107;-88
2021/06/11 05:39:06;;;;;;;31.23;14.13;;;;;;;;;;5072647;28;20529;-89
2021/06/11 05:41:33;;;;;;;24.77;14.43;;;;;;;;;;5086981;28;20130;-88
2021/06/11 05:44:00;;;;;;;23.63;13.88;;;;;;;;;;5074641;28;20048;-89
2021/06/11 05:46:27;;;;;;;26.35;14.60;;;;;;;;;;5092243;28;20075;-89
2021/06/11 05:48:55;;;;;;;22.65;14.52;;;;;;;;;;5074339;28;20048;-88
2021/06/11 05:51:22;;;;;;;28.10;14.60;;;;;;;;;;5074291;28;20074;-89
2021/06/11 05:53:49;;;;;;;21.33;14.43;;;;;;;;;;5092149;28;20048;-88
2021/06/11 05:56:18;;;;;;;26.58;14.77;;;;;;;;;;5092099;28;20443;-89
2021/06/11 05:58:46;;;;;;;28.40;15.23;;;;;;;;;;5060043;28;20100;-89
2021/06/11 06:01:13;;;;;;;22.67;13.20;;;;;;;;;;5048339;28;20052;-88
2021/06/11 06:03:42;;;;;;;31.75;15.07;;;;;;;;;;5078443;28;20044;-89
2021/06/11 06:06:09;;;;;;;24.48;14.98;;;;;;;;;;5078285;28;20083;-89
2021/06/11 06:08:36;;;;;;;27.33;13.02;;;;;;;;;;5095744;28;20087;-88
2021/06/11 06:11:04;;;;;;;25.75;13.32;;;;;;;;;;5059595;28;20054;-88
2021/06/11 06:13:31;;;;;;;22.23;12.93;;;;;;;;;;5059649;28;20554;-89
2021/06/11 06:15:58;;;;;;;17.70;12.68;;;;;;;;;;5060856;28;20124;-89
2021/06/11 06:18:25;;;;;;;25.38;12.82;;;;;;;;;;5060088;28;20137;-89
2021/06/11 06:20:53;;;;;;;20.10;11.70;;;;;;;;;;5059620;28;20133;-89
2021/06/11 06:23:20;;;;;;;23.95;13.32;;;;;;;;;;5075486;28;20087;-89
2021/06/11 06:25:47;;;;;;;19.65;11.80;;;;;;;;;;5057198;28;20064;-89
2021/06/11 06:28:14;;;;;;;23.15;11.18;;;;;;;;;;5057345;28;20148;-89
2021/06/11 06:30:48;;;;;;;13.75;10.60;;;;;;;;;;5058181;28;20493;-89
2021/06/11 06:33:15;;;;;;;24.58;10.05;;;;;;;;;;5057621;28;20230;-89
2021/06/11 06:35:42;;;;;;;18.27;8.32;;;;;;;;;;5057056;28;20085;-89
2021/06/11 06:38:11;;;;;;;12.43;8.48;;;;;;;;;;5040589;28;20458;-89
2021/06/11 06:40:47;;;;;;;13.43;8.05;;;;;;;;;;5049727;28;20073;-89
2021/06/11 06:43:15;;;;;;;9.93;6.78;;;;;;;;;;5077363;28;20075;-89
2021/06/11 06:45:42;;;;;;;15.05;7.15;;;;;;;;;;5095970;28;20055;-89
2021/06/11 06:48:09;;;;;;;11.15;7.63;;;;;;;;;;5077368;28;20056;-90
2021/06/11 06:50:36;;;;;;;10.45;6.60;;;;;;;;;;5076210;28;20135;-89
2021/06/11 06:53:05;;;;;;;14.32;8.25;;;;;;;;;;5059869;28;20096;-89
2021/06/11 06:55:32;;;;;;;12.30;7.93;;;;;;;;;;5059204;28;20054;-88
2021/06/11 06:57:59;;;;;;;21.42;7.60;;;;;;;;;;5059507;28;20046;-89
2021/06/11 07:00:27;;;;;;;11.98;8.88;;;;;;;;;;5059699;28;20502;-89
2021/06/11 07:02:54;;;;;;;14.95;8.75;;;;;;;;;;5059367;28;20074;-89
2021/06/11 07:05:21;;;;;;;11.48;7.90;;;;;;;;;;5058669;28;20534;-89
2021/06/11 07:07:48;;;;;;;13.80;8.35;;;;;;;;;;5044093;28;20476;-89
2021/06/11 07:10:16;;;;;;;16.63;9.90;;;;;;;;;;5071711;28;20506;-90
2021/06/11 07:12:43;;;;;;;12.43;8.77;;;;;;;;;;5077081;28;20702;-89
2021/06/11 07:15:11;;;;;;;22.25;8.25;;;;;;;;;;5094986;28;20052;-89
2021/06/11 07:17:39;;;;;;;23.83;9.23;;;;;;;;;;5076448;28;20052;-89
2021/06/11 07:20:07;;;;;;;14.32;8.65;;;;;;;;;;5076340;28;20105;-90
2021/06/11 07:22:34;;;;;;;15.15;8.07;;;;;;;;;;5092524;28;20075;-90
2021/06/11 07:25:03;;;;;;;14.02;8.15;;;;;;;;;;5095102;28;20131;-89
2021/06/11 07:27:33;;;;;;;11.00;7.60;;;;;;;;;;5076578;28;20080;-89
2021/06/11 07:30:01;;;;;;;19.75;8.32;;;;;;;;;;5075956;28;20051;-88
2021/06/11 07:32:28;;;;;;;12.80;8.90;;;;;;;;;;5095024;28;20044;-90
2021/06/11 07:34:56;;;;;;;12.50;9.60;;;;;;;;;;5060961;28;20868;-89
2021/06/11 07:37:23;;;;;;;11.63;8.10;;;;;;;;;;5060473;28;20051;-88
2021/06/11 07:39:51;;;;;;;11.50;7.43;;;;;;;;;;5065138;28;20049;-89
2021/06/11 07:42:18;;;;;;;18.60;8.50;;;;;;;;;;5012221;28;20081;-88
2021/06/11 07:44:46;;;;;;;15.57;8.30;;;;;;;;;;5011368;28;20107;-89
2021/06/11 07:47:13;;;;;;;23.25;8.25;;;;;;;;;;5079298;28;20082;-88
2021/06/11 07:49:42;;;;;;;17.83;9.00;;;;;;;;;;5076113;28;20052;-89
2021/06/11 07:52:09;;;;;;;15.25;8.57;;;;;;;;;;5058684;28;20109;-88
2021/06/11 07:54:36;;;;;;;18.98;8.27;;;;;;;;;;5092542;28;20710;-89
2021/06/11 07:57:03;;;;;;;13.82;8.27;;;;;;;;;;5074926;28;20051;-89
2021/06/11 07:59:31;;;;;;;11.95;8.00;;;;;;;;;;5075899;28;20051;-88
2021/06/11 08:01:58;;;;;;;10.52;8.23;;;;;;;;;;5075984;28;20043;-89
2021/06/11 08:04:26;;;;;;;17.42;7.78;;;;;;;;;;5075074;28;20056;-89
2021/06/11 08:06:53;;;;;;;15.40;7.20;;;;;;;;;;5075621;28;20044;-89
2021/06/11 08:09:20;;;;;;;11.98;7.90;;;;;;;;;;5075591;28;20048;-88
2021/06/11 08:11:48;;;;;;;11.95;6.68;;;;;;;;;;5075424;28;20047;-89
2021/06/11 08:14:15;;;;;;;12.40;7.18;;;;;;;;;;5057459;28;20099;-89
2021/06/11 08:16:42;;;;;;;12.40;6.38;;;;;;;;;;4991013;28;20054;-89
2021/06/11 08:19:10;;;;;;;10.27;7.32;;;;;;;;;;5074779;28;20130;-88
2021/06/11 08:21:37;;;;;;;15.85;7.18;;;;;;;;;;5056981;28;20137;-89
2021/06/11 08:24:04;;;;;;;9.95;6.65;;;;;;;;;;5056575;28;20169;-89
2021/06/11 08:26:32;;;;;;;11.70;6.95;;;;;;;;;;5057117;28;20103;-89
2021/06/11 08:28:59;;;;;;;22.15;7.40;;;;;;;;;;5056371;28;20423;-89
2021/06/11 08:31:27;;;;;;;13.50;6.50;;;;;;;;;;5056761;28;20054;-88
2021/06/11 08:33:54;;;;;;;9.70;6.20;;;;;;;;;;5056271;28;20525;-89
2021/06/11 08:36:21;;;;;;;9.88;6.05;;;;;;;;;;5056315;28;20082;-89
2021/06/11 08:38:49;;;;;;;20.42;6.47;;;;;;;;;;5056636;28;20141;-88
2021/06/11 08:41:17;;;;;;;7.68;6.50;;;;;;;;;;5076767;28;20491;-89
2021/06/11 08:43:45;;;;;;;10.40;6.65;;;;;;;;;;5072805;28;20044;-89
2021/06/11 08:46:14;;;;;;;14.50;7.03;;;;;;;;;;5072440;28;20071;-89
2021/06/11 08:48:42;;;;;;;18.55;8.25;;;;;;;;;;5072245;28;20055;-89
2021/06/11 08:51:10;;;;;;;22.95;7.35;;;;;;;;;;5072446;28;20139;-88
2021/06/11 08:53:38;;;;;;;39.72;8.95;;;;;;;;;;5073429;28;20081;-88
2021/06/11 08:56:05;;;;;;;13.88;6.47;;;;;;;;;;5089548;28;20083;-89
2021/06/11 08:58:38;;;;;;;14.50;6.65;;;;;;;;;;4969339;28;20151;-89
2021/06/11 09:01:06;;;;;;;9.77;6.30;;;;;;;;;;5035904;28;20082;-88
2021/06/11 09:03:47;;;;;;;9.05;6.30;;;;;;;;;;4970547;28;20071;-88
2021/06/11 09:06:16;;;;;;;15.65;8.05;;;;;;;;;;5036526;28;20085;-88
2021/06/11 09:08:54;;;;;;;8.40;6.47;;;;;;;;;;5074028;28;20083;-88
2021/06/11 09:11:22;;;;;;;13.63;7.65;;;;;;;;;;5091201;28;20136;-88
2021/06/11 09:13:54;;;;;;;9.82;6.75;;;;;;;;;;5056264;28;20078;-88
2021/06/11 09:16:23;;;;;;;8.38;5.68;;;;;;;;;;5069611;28;20086;-89
2021/06/11 09:18:55;;;;;;;14.38;7.13;;;;;;;;;;5074238;28;20059;-88
2021/06/11 09:21:26;;;;;;;10.60;7.32;;;;;;;;;;5073921;28;20058;-88
2021/06/11 09:24:44;;;;;;;16.77;6.40;;;;;;;;;;5073615;28;20109;-89
2021/06/11 09:26:57;;;;;;;8.32;6.05;;;;;;;;;;5068665;28;20132;-88
2021/06/11 09:29:26;;;;;;;18.25;7.40;;;;;;;;;;4970616;28;20054;-89
2021/06/11 09:31:54;;;;;;;10.93;6.15;;;;;;;;;;4974098;28;20497;-88
2021/06/11 09:34:22;;;;;;;9.45;6.22;;;;;;;;;;4977139;28;20092;-89
2021/06/11 09:37:03;;;;;;;8.48;4.28;;;;;;;;;;5043593;28;20094;-89
2021/06/11 09:39:44;;;;;;;6.05;3.45;;;;;;;;;;5062788;28;20055;-89
2021/06/11 09:42:12;;;;;;;5.18;3.53;;;;;;;;;;5090412;28;20445;-89
2021/06/11 09:44:40;;;;;;;9.75;3.75;;;;;;;;;;5080753;28;20119;-88
2021/06/11 09:47:07;;;;;;;12.50;3.90;;;;;;;;;;5098956;28;20191;-88
2021/06/11 09:49:45;;;;;;;4.60;3.78;;;;;;;;;;5080296;28;20040;-88
2021/06/11 09:52:13;;;;;;;5.75;3.70;;;;;;;;;;5080067;28;20075;-88
2021/06/11 09:54:40;;;;;;;5.10;3.90;;;;;;;;;;5080202;28;20064;-88
2021/06/11 09:57:23;;;;;;;40.42;4.72;;;;;;;;;;5069059;28;20083;-88
2021/06/11 09:59:50;;;;;;;8.25;3.35;;;;;;;;;;5062155;28;20099;-88
2021/06/11 10:02:21;;;;;;;13.77;3.28;;;;;;;;;;5061032;28;20481;-89
2021/06/11 10:04:49;;;;;;;4.57;3.20;;;;;;;;;;4976156;28;20055;-88
2021/06/11 10:07:16;;;;;;;5.75;3.53;;;;;;;;;;5067048;28;20076;-90
2021/06/11 10:09:44;;;;;;;13.95;3.50;;;;;;;;;;5073329;28;20127;-89
2021/06/11 10:12:11;;;;;;;7.15;3.38;;;;;;;;;;5091928;28;20052;-89
2021/06/11 10:14:40;;;;;;;5.35;2.53;;;;;;;;;;5056688;28;20080;-89
2021/06/11 10:17:07;;;;;;;7.40;2.67;;;;;;;;;;5045841;28;20064;-88
2021/06/11 10:19:35;;;;;;;7.57;2.92;;;;;;;;;;4978307;28;20354;-88
2021/06/11 10:22:02;;;;;;;10.57;3.30;;;;;;;;;;5072014;28;20127;-89
2021/06/11 10:24:31;;;;;;;3.55;2.75;;;;;;;;;;5096624;28;20044;-89
2021/06/11 10:26:58;;;;;;;4.85;2.40;;;;;;;;;;5079863;28;20102;-88
2021/06/11 10:29:25;;;;;;;9.45;2.90;;;;;;;;;;5079945;28;20119;-88
2021/06/11 10:31:53;;;;;;;3.90;1.95;;;;;;;;;;5079745;28;20536;-89
2021/06/11 10:34:20;;;;;;;9.98;2.63;;;;;;;;;;5080398;28;20659;-89
2021/06/11 10:36:47;;;;;;;7.72;2.28;;;;;;;;;;5080277;28;20138;-89
2021/06/11 10:39:22;;;;;;;4.25;2.70;;;;;;;;;;5079922;28;20729;-88
2021/06/11 10:41:52;;;;;;;3.90;2.50;;;;;;;;;;5097580;28;20067;-89
2021/06/11 10:44:38;;;;;;;13.07;3.35;;;;;;;;;;5093520;28;20074;-89
2021/06/11 10:47:18;;;;;;;13.52;4.50;;;;;;;;;;5076331;28;20107;-89
2021/06/11 10:49:57;;;;;;;8.73;2.47;;;;;;;;;;5076246;28;20149;-88
2021/06/11 10:52:34;;;;;;;6.15;2.30;;;;;;;;;;5068095;28;20512;-89
2021/06/11 10:55:14;;;;;;;5.10;2.92;;;;;;;;;;5076703;28;20055;-89
2021/06/11 10:57:43;;;;;;;5.68;2.72;;;;;;;;;;5093717;28;20102;-89
2021/06/11 11:00:31;;;;;;;5.28;2.60;;;;;;;;;;5076869;28;20047;-89
2021/06/11 11:03:01;;;;;;;4.03;2.45;;;;;;;;;;5074948;28;20651;-89
2021/06/11 11:05:29;;;;;;;5.93;2.50;;;;;;;;;;5075850;28;20127;-90
2021/06/11 11:07:57;;;;;;;13.15;3.20;;;;;;;;;;5075940;28;20135;-89
2021/06/11 11:10:44;;;;;;;8.52;3.05;;;;;;;;;;5075783;28;20088;-89
2021/06/11 11:13:18;;;;;;;8.73;2.67;;;;;;;;;;5093937;28;20068;-88
2021/06/11 11:15:50;;;;;;;5.90;2.80;;;;;;;;;;5075865;28;20063;-89
2021/06/11 11:18:20;;;;;;;3.42;2.03;;;;;;;;;;5076245;28;20321;-88
2021/06/11 11:20:48;;;;;;;3.22;2.38;;;;;;;;;;5075859;28;20134;-88
2021/06/11 11:23:20;;;;;;;9.57;2.40;;;;;;;;;;5075370;28;20052;-88
2021/06/11 11:25:47;;;;;;;9.43;2.17;;;;;;;;;;5075780;28;20109;-89
2021/06/11 11:28:15;;;;;;;3.53;2.47;;;;;;;;;;5075764;28;20668;-88
2021/06/11 11:30:44;;;;;;;7.00;2.70;;;;;;;;;;5093213;28;20071;-87
2021/06/11 11:33:11;;;;;;;7.05;2.35;;;;;;;;;;5093443;28;20098;-89
2021/06/11 11:35:40;;;;;;;19.20;2.65;;;;;;;;;;5075529;28;20113;-89
2021/06/11 11:38:08;;;;;;;4.38;1.98;;;;;;;;;;5093293;28;20110;-88
2021/06/11 11:40:36;;;;;;;5.82;2.40;;;;;;;;;;5075062;28;20048;-88
2021/06/11 11:43:04;;;;;;;8.02;2.47;;;;;;;;;;5068892;28;20102;-89
2021/06/11 11:45:32;;;;;;;8.10;2.08;;;;;;;;;;5054724;28;20048;-89
2021/06/11 11:48:02;;;;;;;5.88;2.38;;;;;;;;;;5054968;28;20135;-89
2021/06/11 11:50:31;;;;;;;5.43;2.20;;;;;;;;;;5052668;28;20773;-88
2021/06/11 11:52:58;;;;;;;5.82;2.15;;;;;;;;;;5075271;28;20396;-88
2021/06/11 11:55:26;;;;;;;3.47;1.70;;;;;;;;;;5056260;28;20050;-88
2021/06/11 11:57:55;;;;;;;3.40;2.00;;;;;;;;;;5074029;28;20051;-89
2021/06/11 12:00:23;;;;;;;4.97;1.90;;;;;;;;;;5075421;28;20048;-89
2021/06/11 12:02:50;;;;;;;5.85;1.98;;;;;;;;;;5074781;28;20115;-88
2021/06/11 12:05:18;;;;;;;3.45;1.65;;;;;;;;;;5074091;28;20079;-88
2021/06/11 12:07:45;;;;;;;5.32;1.90;;;;;;;;;;5074112;28;20496;-89
2021/06/11 12:10:13;;;;;;;3.95;1.75;;;;;;;;;;5051462;28;20115;-88
2021/06/11 12:12:40;;;;;;;4.13;2.30;;;;;;;;;;5057454;28;20138;-88
2021/06/11 12:15:07;;;;;;;26.50;2.90;;;;;;;;;;5056234;28;20050;-88
2021/06/11 12:17:35;;;;;;;6.43;2.00;;;;;;;;;;5057290;28;20065;-89
2021/06/11 12:20:03;;;;;;;4.82;1.77;;;;;;;;;;5056595;28;20127;-88
2021/06/11 12:22:45;;;;;;;4.70;2.15;;;;;;;;;;5056303;28;20058;-89
2021/06/11 12:25:12;;;;;;;2.05;1.85;;;;;;;;;;5073148;28;20094;-89
2021/06/11 12:27:39;;;;;;;4.70;1.85;;;;;;;;;;5077618;28;20078;-88
2021/06/11 12:30:07;;;;;;;2.50;1.60;;;;;;;;;;5092684;28;20098;-89
2021/06/11 12:32:45;;;;;;;5.32;1.88;;;;;;;;;;5074417;28;20118;-88
2021/06/11 12:35:13;;;;;;;4.40;1.75;;;;;;;;;;5074398;28;20139;-89
2021/06/11 12:37:40;;;;;;;4.65;2.00;;;;;;;;;;5070998;28;20049;-89
2021/06/11 12:40:07;;;;;;;4.70;1.80;;;;;;;;;;5036948;28;20058;-89
2021/06/11 12:42:40;;;;;;;6.50;2.08;;;;;;;;;;5048497;28;20050;-88
2021/06/11 12:45:09;;;;;;;8.55;2.75;;;;;;;;;;5056566;28;20042;-88
2021/06/11 12:47:38;;;;;;;3.30;1.60;;;;;;;;;;5058121;28;20133;-88
2021/06/11 12:50:07;;;;;;;3.17;1.65;;;;;;;;;;5074274;28;20492;-88
2021/06/11 13:03:01;;;;;;;8.18;2.13;;;;;;;;;;5095717;28;20118;-93
2021/06/11 13:05:28;;;;;;;2.58;1.80;;;;;;;;;;5096044;28;20051;-92
2021/06/11 13:07:56;;;;;;;5.65;1.80;;;;;;;;;;5090538;28;20040;-94
2021/06/11 13:10:24;;;;;;;3.25;1.45;;;;;;;;;;5077118;28;20044;-94
2021/06/11 13:12:55;;;;;;;84.55;7.32;;;;;;;;;;5090324;28;20074;-95
2021/06/11 13:18:59;;;;;;;156.13;12.27;;;;;;;;;;5095841;28;20118;-94
2021/06/11 13:21:30;;;;;;;1.70;1.27;;;;;;;;;;5078325;28;20083;-94
2021/06/11 13:24:03;;;;;;;6.07;1.17;;;;;;;;;;5078666;28;20472;-95
2021/06/11 13:26:30;;;;;;;856.90;77.25;;;;;;;;;;5095711;28;20066;-95
2021/06/11 13:29:02;;;;;;;4.93;1.55;;;;;;;;;;5078535;28;20073;-95
2021/06/11 13:31:29;;;;;;;7.43;1.42;;;;;;;;;;5078078;28;20048;-94
2021/06/11 13:33:56;;;;;;;3.30;1.00;;;;;;;;;;5078325;28;20052;-95
2021/06/11 13:36:24;;;;;;;7.30;1.67;;;;;;;;;;5078627;28;20545;-95
2021/06/11 13:38:51;;;;;;;5.18;1.25;;;;;;;;;;5080646;28;20052;-93
2021/06/11 13:41:21;;;;;;;2.67;1.23;;;;;;;;;;5096228;28;20069;-95
2021/06/11 13:43:49;;;;;;;4.88;1.55;;;;;;;;;;5079201;28;20051;-93
2021/06/11 13:46:16;;;;;;;1.90;1.27;;;;;;;;;;5079111;28;20071;-94
2021/06/11 13:48:44;;;;;;;2.53;1.08;;;;;;;;;;5078468;28;20048;-94
2021/06/11 13:51:11;;;;;;;2.15;1.20;;;;;;;;;;5079833;28;20139;-93
2021/06/11 13:53:39;;;;;;;11.18;2.08;;;;;;;;;;5079285;28;20047;-93
2021/06/11 13:56:07;;;;;;;6.88;1.95;;;;;;;;;;5096913;28;20058;-93
2021/06/11 13:58:35;;;;;;;3.65;1.70;;;;;;;;;;5080164;28;20051;-93
2021/06/11 14:01:04;;;;;;;3.80;1.75;;;;;;;;;;5062370;28;20052;-93
2021/06/11 14:03:35;;;;;;;3.50;1.73;;;;;;;;;;5096487;28;20052;-93
2021/06/11 14:06:22;;;;;;;5.82;2.05;;;;;;;;;;5078001;28;20048;-93
2021/06/11 14:08:50;;;;;;;4.63;1.63;;;;;;;;;;5077480;28;20067;-94
2021/06/11 14:11:18;;;;;;;17.00;2.38;;;;;;;;;;5059997;28;20055;-94
2021/06/11 14:13:47;;;;;;;40.53;3.15;;;;;;;;;;4993000;28;20473;-94
2021/06/11 14:16:14;;;;;;;5.07;2.38;;;;;;;;;;5060031;28;20054;-93
2021/06/11 14:18:59;;;;;;;6.80;2.33;;;;;;;;;;4995111;28;20046;-94
2021/06/11 14:21:27;;;;;;;3.90;1.83;;;;;;;;;;5063873;28;20104;-93
2021/06/11 14:23:57;;;;;;;1.75;1.48;;;;;;;;;;5062309;28;20081;-94
2021/06/11 14:26:32;;;;;;;;;;;;;;;;;;5060240;28;20052;-93
2021/06/11 14:29:01;;;;;;;7.28;2.33;;;;;;;;;;5063922;28;20313;-93
2021/06/11 14:31:38;;;;;;;4.93;1.90;;;;;;;;;;5045508;28;20046;-94
2021/06/11 14:34:08;;;;;;;2.28;1.55;;;;;;;;;;5071122;28;20058;-94
2021/06/11 14:36:37;;;;;;;4.28;1.67;;;;;;;;;;5084538;28;20049;-94
2021/06/11 14:39:08;;;;;;;3.78;1.73;;;;;;;;;;5017500;28;20060;-93
2021/06/11 14:41:36;;;;;;;2.10;1.55;;;;;;;;;;5085355;28;20094;-93
2021/06/11 14:44:09;;;;;;;3.88;1.40;;;;;;;;;;5083011;28;20050;-93
2021/06/11 14:46:38;;;;;;;3.55;1.50;;;;;;;;;;5085595;28;20038;-93
2021/06/11 14:49:10;;;;;;;3.22;1.67;;;;;;;;;;5084975;28;20053;-94
2021/06/11 14:51:42;;;;;;;3.75;1.67;;;;;;;;;;5068617;28;20038;-93
2021/06/11 14:54:13;;;;;;;2.30;1.52;;;;;;;;;;5104421;28;20087;-91
2021/06/11 15:00:13;;;;;;;3.30;1.92;;;;;;;;;;5121849;28;20119;-93